sensor_id;sensor_type;location;lat;lon;timestamp;pressure;altitude;pressure_sealevel;temperature;humidity
13486;BME280;6815;59.336;17.998;2023-03-11T00:02:15;52178.97;;;-145.37;85.25
13486;BME280;6815;59.336;17.998;2023-03-11T00:04:41;52180.97;;;-145.37;85.08
13486;BME280;6815;59.336;17.998;2023-03-11T00:07:09;52133.06;;;-145.37;85.96
13486;BME280;6815;59.336;17.998;2023-03-11T00:09:35;52180.97;;;-145.37;85.44
13486;BME280;6815;59.336;17.998;2023-03-11T00:12:01;52141.06;;;-145.37;85.49
13486;BME280;6815;59.336;17.998;2023-03-11T00:14:27;52196.94;;;-145.37;85.16
13486;BME280;6815;59.336;17.998;2023-03-11T00:16:52;52182.97;;;-145.37;84.88
13486;BME280;6815;59.336;17.998;2023-03-11T00:19:18;52196.94;;;-145.37;83.85
13486;BME280;6815;59.336;17.998;2023-03-11T00:21:43;52157.03;;;-145.37;84.21
13486;BME280;6815;59.336;17.998;2023-03-11T00:24:08;52169.00;;;-145.37;83.97
13486;BME280;6815;59.336;17.998;2023-03-11T00:26:34;52188.97;;;-145.37;84.51
13486;BME280;6815;59.336;17.998;2023-03-11T00:28:59;52186.97;;;-145.37;84.29
13486;BME280;6815;59.336;17.998;2023-03-11T00:31:25;52169.00;;;-145.37;83.37
13486;BME280;6815;59.336;17.998;2023-03-11T00:33:54;52155.03;;;-145.37;84.12
13486;BME280;6815;59.336;17.998;2023-03-11T00:36:29;52147.03;;;-145.37;84.74
13486;BME280;6815;59.336;17.998;2023-03-11T00:38:57;52178.97;;;-145.37;83.74
13486;BME280;6815;59.336;17.998;2023-03-11T00:41:23;52161.03;;;-145.37;83.46
13486;BME280;6815;59.336;17.998;2023-03-11T00:43:48;52153.03;;;-145.37;83.40
13486;BME280;6815;59.336;17.998;2023-03-11T00:46:14;52184.97;;;-145.37;84.09
13486;BME280;6815;59.336;17.998;2023-03-11T00:48:39;52180.97;;;-145.37;82.86
13486;BME280;6815;59.336;17.998;2023-03-11T00:51:13;52165.00;;;-145.37;83.30
13486;BME280;6815;59.336;17.998;2023-03-11T00:53:40;52175.00;;;-145.37;84.01
13486;BME280;6815;59.336;17.998;2023-03-11T00:56:12;52173.00;;;-145.37;84.09
13486;BME280;6815;59.336;17.998;2023-03-11T00:58:39;52147.03;;;-145.37;83.55
13486;BME280;6815;59.336;17.998;2023-03-11T01:01:09;52145.03;;;-145.37;83.13
13486;BME280;6815;59.336;17.998;2023-03-11T01:03:35;52155.03;;;-145.37;81.26
13486;BME280;6815;59.336;17.998;2023-03-11T01:06:01;52137.06;;;-145.37;82.34
13486;BME280;6815;59.336;17.998;2023-03-11T01:08:27;52161.03;;;-145.37;82.71
13486;BME280;6815;59.336;17.998;2023-03-11T01:10:53;52111.13;;;-145.37;82.16
13486;BME280;6815;59.336;17.998;2023-03-11T01:13:19;52204.94;;;-145.37;82.55
13486;BME280;6815;59.336;17.998;2023-03-11T01:15:45;52173.00;;;-145.37;83.65
13486;BME280;6815;59.336;17.998;2023-03-11T01:18:11;52163.00;;;-145.37;83.14
13486;BME280;6815;59.336;17.998;2023-03-11T01:20:37;52178.97;;;-145.37;82.82
13486;BME280;6815;59.336;17.998;2023-03-11T01:23:03;52147.03;;;-145.37;81.75
13486;BME280;6815;59.336;17.998;2023-03-11T01:25:29;52163.00;;;-145.37;81.50
13486;BME280;6815;59.336;17.998;2023-03-11T01:27:54;52173.00;;;-145.37;81.97
13486;BME280;6815;59.336;17.998;2023-03-11T01:30:22;52153.03;;;-145.37;82.24
13486;BME280;6815;59.336;17.998;2023-03-11T01:32:48;52190.97;;;-145.37;82.79
13486;BME280;6815;59.336;17.998;2023-03-11T01:35:16;52145.03;;;-145.37;82.16
13486;BME280;6815;59.336;17.998;2023-03-11T01:37:41;52147.03;;;-145.37;83.46
13486;BME280;6815;59.336;17.998;2023-03-11T01:40:10;52171.00;;;-145.37;82.32
13486;BME280;6815;59.336;17.998;2023-03-11T01:42:37;52169.00;;;-145.37;81.89
13486;BME280;6815;59.336;17.998;2023-03-11T01:47:48;52133.06;;;-145.37;82.59
13486;BME280;6815;59.336;17.998;2023-03-11T01:50:13;52119.09;;;-145.37;83.18
13486;BME280;6815;59.336;17.998;2023-03-11T01:52:40;52065.19;;;-145.37;82.69
13486;BME280;6815;59.336;17.998;2023-03-11T01:55:08;52101.13;;;-145.37;82.25
13486;BME280;6815;59.336;17.998;2023-03-11T01:57:35;52165.00;;;-145.37;82.16
13486;BME280;6815;59.336;17.998;2023-03-11T02:00:07;52192.97;;;-145.37;82.52
13486;BME280;6815;59.336;17.998;2023-03-11T02:02:39;52182.97;;;-145.37;81.62
13486;BME280;6815;59.336;17.998;2023-03-11T02:05:08;52135.06;;;-145.37;82.58
13486;BME280;6815;59.336;17.998;2023-03-11T02:07:34;52178.97;;;-145.37;82.73
13486;BME280;6815;59.336;17.998;2023-03-11T02:10:01;52133.06;;;-145.37;82.50
13486;BME280;6815;59.336;17.998;2023-03-11T02:12:29;52178.97;;;-145.37;81.45
13486;BME280;6815;59.336;17.998;2023-03-11T02:14:58;52157.03;;;-145.37;80.51
13486;BME280;6815;59.336;17.998;2023-03-11T02:17:25;52173.00;;;-145.37;80.25
13486;BME280;6815;59.336;17.998;2023-03-11T02:22:15;52182.97;;;-145.37;79.35
13486;BME280;6815;59.336;17.998;2023-03-11T02:24:53;52155.03;;;-145.37;80.20
13486;BME280;6815;59.336;17.998;2023-03-11T02:27:22;52177.00;;;-145.37;80.61
13486;BME280;6815;59.336;17.998;2023-03-11T02:29:50;52159.03;;;-145.37;81.44
13486;BME280;6815;59.336;17.998;2023-03-11T02:32:17;52220.91;;;-145.37;81.01
13486;BME280;6815;59.336;17.998;2023-03-11T02:34:43;52198.94;;;-145.37;80.68
13486;BME280;6815;59.336;17.998;2023-03-11T02:37:11;52119.09;;;-145.37;79.50
13486;BME280;6815;59.336;17.998;2023-03-11T02:39:39;52178.97;;;-145.37;80.13
13486;BME280;6815;59.336;17.998;2023-03-11T02:42:16;52196.94;;;-145.37;81.52
13486;BME280;6815;59.336;17.998;2023-03-11T02:44:44;52135.06;;;-145.37;80.82
13486;BME280;6815;59.336;17.998;2023-03-11T02:47:11;52159.03;;;-145.37;81.55
13486;BME280;6815;59.336;17.998;2023-03-11T02:49:36;52125.09;;;-145.37;80.37
13486;BME280;6815;59.336;17.998;2023-03-11T02:52:02;52149.03;;;-145.37;80.36
13486;BME280;6815;59.336;17.998;2023-03-11T02:54:27;52165.00;;;-145.37;80.05
13486;BME280;6815;59.336;17.998;2023-03-11T02:56:53;52163.00;;;-145.37;81.12
13486;BME280;6815;59.336;17.998;2023-03-11T02:59:18;52115.09;;;-145.37;81.09
13486;BME280;6815;59.336;17.998;2023-03-11T03:01:44;52175.00;;;-145.37;81.71
13486;BME280;6815;59.336;17.998;2023-03-11T03:04:09;52153.03;;;-145.37;82.04
13486;BME280;6815;59.336;17.998;2023-03-11T03:06:35;52145.03;;;-145.37;82.40
13486;BME280;6815;59.336;17.998;2023-03-11T03:09:00;52137.06;;;-145.37;81.64
13486;BME280;6815;59.336;17.998;2023-03-11T03:11:26;52177.00;;;-145.37;82.43
13486;BME280;6815;59.336;17.998;2023-03-11T03:13:51;52137.06;;;-145.37;81.88
13486;BME280;6815;59.336;17.998;2023-03-11T03:16:16;52139.06;;;-145.37;81.14
13486;BME280;6815;59.336;17.998;2023-03-11T03:18:42;52139.06;;;-145.37;79.60
13486;BME280;6815;59.336;17.998;2023-03-11T03:21:07;52149.03;;;-145.37;80.26
13486;BME280;6815;59.336;17.998;2023-03-11T03:23:33;52151.03;;;-145.37;80.58
13486;BME280;6815;59.336;17.998;2023-03-11T03:26:02;52129.06;;;-145.37;80.52
13486;BME280;6815;59.336;17.998;2023-03-11T03:28:27;52139.06;;;-145.37;81.40
13486;BME280;6815;59.336;17.998;2023-03-11T03:30:53;52151.03;;;-145.37;81.43
13486;BME280;6815;59.336;17.998;2023-03-11T03:33:18;52167.00;;;-145.37;80.94
13486;BME280;6815;59.336;17.998;2023-03-11T03:35:44;52147.03;;;-145.37;80.87
13486;BME280;6815;59.336;17.998;2023-03-11T03:38:10;52180.97;;;-145.37;80.85
13486;BME280;6815;59.336;17.998;2023-03-11T03:40:35;52161.03;;;-145.37;80.80
13486;BME280;6815;59.336;17.998;2023-03-11T03:43:01;52167.00;;;-145.37;80.26
13486;BME280;6815;59.336;17.998;2023-03-11T03:45:27;52157.03;;;-145.37;80.53
13486;BME280;6815;59.336;17.998;2023-03-11T03:47:52;52184.97;;;-145.37;80.04
13486;BME280;6815;59.336;17.998;2023-03-11T03:50:17;52192.97;;;-145.37;80.19
13486;BME280;6815;59.336;17.998;2023-03-11T03:52:43;52149.03;;;-145.37;80.34
13486;BME280;6815;59.336;17.998;2023-03-11T03:55:09;52143.06;;;-145.37;80.70
13486;BME280;6815;59.336;17.998;2023-03-11T03:57:35;52196.94;;;-145.37;81.36
13486;BME280;6815;59.336;17.998;2023-03-11T04:00:00;52204.94;;;-145.37;81.49
13486;BME280;6815;59.336;17.998;2023-03-11T04:02:26;52131.06;;;-145.37;80.96
13486;BME280;6815;59.336;17.998;2023-03-11T04:04:51;52175.00;;;-145.37;80.45
13486;BME280;6815;59.336;17.998;2023-03-11T04:07:17;52169.00;;;-145.37;80.07
13486;BME280;6815;59.336;17.998;2023-03-11T04:09:43;52163.00;;;-145.37;79.51
13486;BME280;6815;59.336;17.998;2023-03-11T04:12:15;52175.00;;;-145.37;80.13
13486;BME280;6815;59.336;17.998;2023-03-11T04:14:41;52163.00;;;-145.37;80.08
13486;BME280;6815;59.336;17.998;2023-03-11T04:17:12;52173.00;;;-145.37;80.88
13486;BME280;6815;59.336;17.998;2023-03-11T04:19:38;52135.06;;;-145.37;79.70
13486;BME280;6815;59.336;17.998;2023-03-11T04:22:03;52190.97;;;-145.37;80.15
13486;BME280;6815;59.336;17.998;2023-03-11T04:24:29;52147.03;;;-145.37;79.04
13486;BME280;6815;59.336;17.998;2023-03-11T04:26:54;52121.09;;;-145.37;79.49
13486;BME280;6815;59.336;17.998;2023-03-11T04:29:20;52147.03;;;-145.37;80.02
13486;BME280;6815;59.336;17.998;2023-03-11T04:31:45;52155.03;;;-145.37;79.93
13486;BME280;6815;59.336;17.998;2023-03-11T04:34:10;52151.03;;;-145.37;80.11
13486;BME280;6815;59.336;17.998;2023-03-11T04:36:36;52167.00;;;-145.37;81.60
13486;BME280;6815;59.336;17.998;2023-03-11T04:39:02;52121.09;;;-145.37;81.16
13486;BME280;6815;59.336;17.998;2023-03-11T04:41:27;52141.06;;;-145.37;80.43
13486;BME280;6815;59.336;17.998;2023-03-11T04:43:53;52133.06;;;-145.37;80.13
13486;BME280;6815;59.336;17.998;2023-03-11T04:46:18;52143.06;;;-145.37;80.07
13486;BME280;6815;59.336;17.998;2023-03-11T04:48:44;52159.03;;;-145.37;80.39
13486;BME280;6815;59.336;17.998;2023-03-11T04:51:09;52159.03;;;-145.37;80.90
13486;BME280;6815;59.336;17.998;2023-03-11T04:53:35;52151.03;;;-145.37;81.12
13486;BME280;6815;59.336;17.998;2023-03-11T04:56:00;52167.00;;;-145.37;81.49
13486;BME280;6815;59.336;17.998;2023-03-11T04:58:26;52204.94;;;-145.37;81.92
13486;BME280;6815;59.336;17.998;2023-03-11T05:00:51;52216.91;;;-145.37;81.68
13486;BME280;6815;59.336;17.998;2023-03-11T05:03:19;52135.06;;;-145.37;81.04
13486;BME280;6815;59.336;17.998;2023-03-11T05:05:44;52119.09;;;-145.37;81.31
13486;BME280;6815;59.336;17.998;2023-03-11T05:08:10;52157.03;;;-145.37;81.10
13486;BME280;6815;59.336;17.998;2023-03-11T05:10:35;52101.13;;;-145.37;81.49
13486;BME280;6815;59.336;17.998;2023-03-11T05:13:02;52161.03;;;-145.37;81.02
13486;BME280;6815;59.336;17.998;2023-03-11T05:15:28;52111.13;;;-145.37;81.39
13486;BME280;6815;59.336;17.998;2023-03-11T05:17:55;52196.94;;;-145.37;81.07
13486;BME280;6815;59.336;17.998;2023-03-11T05:20:21;52177.00;;;-145.37;81.42
13486;BME280;6815;59.336;17.998;2023-03-11T05:22:47;52131.06;;;-145.37;81.11
13486;BME280;6815;59.336;17.998;2023-03-11T05:25:12;52192.97;;;-145.37;81.15
13486;BME280;6815;59.336;17.998;2023-03-11T05:27:37;52190.97;;;-145.37;81.66
13486;BME280;6815;59.336;17.998;2023-03-11T05:30:03;52135.06;;;-145.37;81.04
13486;BME280;6815;59.336;17.998;2023-03-11T05:32:29;52182.97;;;-145.37;81.35
13486;BME280;6815;59.336;17.998;2023-03-11T05:34:54;52149.03;;;-145.37;80.80
13486;BME280;6815;59.336;17.998;2023-03-11T05:37:20;52129.06;;;-145.37;80.80
13486;BME280;6815;59.336;17.998;2023-03-11T05:39:45;52145.03;;;-145.37;81.07
13486;BME280;6815;59.336;17.998;2023-03-11T05:42:11;52139.06;;;-145.37;81.44
13486;BME280;6815;59.336;17.998;2023-03-11T05:44:36;52159.03;;;-145.37;81.13
13486;BME280;6815;59.336;17.998;2023-03-11T05:47:02;52145.03;;;-145.37;81.18
13486;BME280;6815;59.336;17.998;2023-03-11T05:49:27;52188.97;;;-145.37;81.08
13486;BME280;6815;59.336;17.998;2023-03-11T05:51:53;52141.06;;;-145.37;81.41
13486;BME280;6815;59.336;17.998;2023-03-11T05:54:19;52171.00;;;-145.37;81.90
13486;BME280;6815;59.336;17.998;2023-03-11T05:56:48;52175.00;;;-145.37;81.97
13486;BME280;6815;59.336;17.998;2023-03-11T05:59:14;52129.06;;;-145.37;82.33
13486;BME280;6815;59.336;17.998;2023-03-11T06:01:41;52101.13;;;-145.37;82.30
13486;BME280;6815;59.336;17.998;2023-03-11T06:04:08;52169.00;;;-145.37;82.39
13486;BME280;6815;59.336;17.998;2023-03-11T06:06:33;52182.97;;;-145.37;82.37
13486;BME280;6815;59.336;17.998;2023-03-11T06:08:59;52143.06;;;-145.37;82.10
13486;BME280;6815;59.336;17.998;2023-03-11T06:11:24;52214.91;;;-145.37;81.28
13486;BME280;6815;59.336;17.998;2023-03-11T06:13:54;52155.03;;;-145.37;81.13
13486;BME280;6815;59.336;17.998;2023-03-11T06:16:21;52125.09;;;-145.37;80.94
13486;BME280;6815;59.336;17.998;2023-03-11T06:18:46;52145.03;;;-145.37;81.23
13486;BME280;6815;59.336;17.998;2023-03-11T06:21:16;52139.06;;;-145.37;81.41
13486;BME280;6815;59.336;17.998;2023-03-11T06:23:42;52157.03;;;-145.37;81.38
13486;BME280;6815;59.336;17.998;2023-03-11T06:26:09;52151.03;;;-145.37;81.12
13486;BME280;6815;59.336;17.998;2023-03-11T06:28:36;52159.03;;;-145.37;80.84
13486;BME280;6815;59.336;17.998;2023-03-11T06:31:07;52141.06;;;-145.37;80.65
13486;BME280;6815;59.336;17.998;2023-03-11T06:33:32;52220.91;;;-145.37;80.70
13486;BME280;6815;59.336;17.998;2023-03-11T06:35:59;52214.91;;;-145.37;81.08
13486;BME280;6815;59.336;17.998;2023-03-11T06:38:25;52155.03;;;-145.37;80.67
13486;BME280;6815;59.336;17.998;2023-03-11T06:40:51;52157.03;;;-145.37;80.92
13486;BME280;6815;59.336;17.998;2023-03-11T06:43:17;52169.00;;;-145.37;81.12
13486;BME280;6815;59.336;17.998;2023-03-11T06:45:42;52169.00;;;-145.37;80.50
13486;BME280;6815;59.336;17.998;2023-03-11T06:48:08;52131.06;;;-145.37;80.29
13486;BME280;6815;59.336;17.998;2023-03-11T06:50:33;52173.00;;;-145.37;80.18
13486;BME280;6815;59.336;17.998;2023-03-11T06:52:58;52180.97;;;-145.37;80.13
13486;BME280;6815;59.336;17.998;2023-03-11T06:55:24;52131.06;;;-145.37;80.06
13486;BME280;6815;59.336;17.998;2023-03-11T06:57:50;52188.97;;;-145.37;79.30
13486;BME280;6815;59.336;17.998;2023-03-11T07:00:16;52153.03;;;-145.37;80.05
13486;BME280;6815;59.336;17.998;2023-03-11T07:02:41;52149.03;;;-145.37;80.09
13486;BME280;6815;59.336;17.998;2023-03-11T07:05:07;52157.03;;;-145.37;79.57
13486;BME280;6815;59.336;17.998;2023-03-11T07:07:33;52155.03;;;-145.37;79.04
13486;BME280;6815;59.336;17.998;2023-03-11T07:09:58;52143.06;;;-145.37;79.81
13486;BME280;6815;59.336;17.998;2023-03-11T07:12:24;52196.94;;;-145.37;79.22
13486;BME280;6815;59.336;17.998;2023-03-11T07:14:57;52147.03;;;-145.37;79.08
13486;BME280;6815;59.336;17.998;2023-03-11T07:17:23;52169.00;;;-145.37;78.91
13486;BME280;6815;59.336;17.998;2023-03-11T07:19:49;52165.00;;;-145.37;78.65
13486;BME280;6815;59.336;17.998;2023-03-11T07:22:15;52178.97;;;-145.37;78.55
13486;BME280;6815;59.336;17.998;2023-03-11T07:24:44;52165.00;;;-145.37;78.20
13486;BME280;6815;59.336;17.998;2023-03-11T07:27:10;52159.03;;;-145.37;78.41
13486;BME280;6815;59.336;17.998;2023-03-11T07:29:35;52186.97;;;-145.37;77.98
13486;BME280;6815;59.336;17.998;2023-03-11T07:32:01;52173.00;;;-145.37;78.57
13486;BME280;6815;59.336;17.998;2023-03-11T07:34:26;52145.03;;;-145.37;79.15
13486;BME280;6815;59.336;17.998;2023-03-11T07:36:52;52180.97;;;-145.37;78.37
13486;BME280;6815;59.336;17.998;2023-03-11T07:39:18;52149.03;;;-145.37;78.52
13486;BME280;6815;59.336;17.998;2023-03-11T07:41:44;52177.00;;;-145.37;78.36
13486;BME280;6815;59.336;17.998;2023-03-11T07:44:11;52159.03;;;-145.37;78.91
13486;BME280;6815;59.336;17.998;2023-03-11T07:46:40;52177.00;;;-145.37;78.65
13486;BME280;6815;59.336;17.998;2023-03-11T07:49:06;52212.91;;;-145.37;78.40
13486;BME280;6815;59.336;17.998;2023-03-11T07:51:34;52155.03;;;-145.37;78.28
13486;BME280;6815;59.336;17.998;2023-03-11T07:54:02;52173.00;;;-145.37;78.55
13486;BME280;6815;59.336;17.998;2023-03-11T07:56:31;52192.97;;;-145.37;78.48
13486;BME280;6815;59.336;17.998;2023-03-11T07:58:58;52173.00;;;-145.37;78.59
13486;BME280;6815;59.336;17.998;2023-03-11T08:01:33;52169.00;;;-145.37;78.73
13486;BME280;6815;59.336;17.998;2023-03-11T08:04:08;52178.97;;;-145.37;78.88
13486;BME280;6815;59.336;17.998;2023-03-11T08:06:35;52182.97;;;-145.37;78.01
13486;BME280;6815;59.336;17.998;2023-03-11T08:09:04;52178.97;;;-145.37;77.88
13486;BME280;6815;59.336;17.998;2023-03-11T08:11:30;52200.94;;;-145.37;77.34
13486;BME280;6815;59.336;17.998;2023-03-11T08:13:56;52169.00;;;-145.37;77.81
13486;BME280;6815;59.336;17.998;2023-03-11T08:16:22;52173.00;;;-145.37;77.78
13486;BME280;6815;59.336;17.998;2023-03-11T08:18:49;52208.94;;;-145.37;78.17
13486;BME280;6815;59.336;17.998;2023-03-11T08:21:18;52182.97;;;-145.37;78.15
13486;BME280;6815;59.336;17.998;2023-03-11T08:23:48;52188.97;;;-145.37;77.93
13486;BME280;6815;59.336;17.998;2023-03-11T08:26:19;52206.94;;;-145.37;77.53
13486;BME280;6815;59.336;17.998;2023-03-11T08:28:45;52210.91;;;-145.37;77.63
13486;BME280;6815;59.336;17.998;2023-03-11T08:33:46;52163.00;;;-145.37;77.27
13486;BME280;6815;59.336;17.998;2023-03-11T08:36:14;52198.94;;;-145.37;77.52
13486;BME280;6815;59.336;17.998;2023-03-11T08:38:40;52188.97;;;-145.37;77.29
13486;BME280;6815;59.336;17.998;2023-03-11T08:41:08;52153.03;;;-145.37;76.82
13486;BME280;6815;59.336;17.998;2023-03-11T08:43:34;52212.91;;;-145.37;77.34
13486;BME280;6815;59.336;17.998;2023-03-11T08:46:01;52169.00;;;-145.37;78.09
13486;BME280;6815;59.336;17.998;2023-03-11T08:48:27;52196.94;;;-145.37;78.27
13486;BME280;6815;59.336;17.998;2023-03-11T08:50:53;52182.97;;;-145.37;78.50
13486;BME280;6815;59.336;17.998;2023-03-11T08:53:19;52224.91;;;-145.37;78.28
13486;BME280;6815;59.336;17.998;2023-03-11T08:55:44;52161.03;;;-145.37;78.95
13486;BME280;6815;59.336;17.998;2023-03-11T08:58:10;52208.94;;;-145.37;79.31
13486;BME280;6815;59.336;17.998;2023-03-11T09:00:36;52238.88;;;-145.37;78.98
13486;BME280;6815;59.336;17.998;2023-03-11T09:03:01;52173.00;;;-145.37;79.02
13486;BME280;6815;59.336;17.998;2023-03-11T09:05:26;52196.94;;;-145.37;79.21
13486;BME280;6815;59.336;17.998;2023-03-11T09:07:52;52202.94;;;-145.37;79.38
13486;BME280;6815;59.336;17.998;2023-03-11T09:10:18;52210.91;;;-145.37;79.28
13486;BME280;6815;59.336;17.998;2023-03-11T09:12:45;52218.91;;;-145.37;79.49
13486;BME280;6815;59.336;17.998;2023-03-11T09:15:17;52175.00;;;-145.37;79.11
13486;BME280;6815;59.336;17.998;2023-03-11T09:17:43;52260.84;;;-145.37;78.90
13486;BME280;6815;59.336;17.998;2023-03-11T09:20:12;52242.88;;;-145.37;78.91
13486;BME280;6815;59.336;17.998;2023-03-11T09:22:37;52218.91;;;-145.37;78.76
13486;BME280;6815;59.336;17.998;2023-03-11T09:25:03;52196.94;;;-145.37;78.37
13486;BME280;6815;59.336;17.998;2023-03-11T09:27:28;52228.88;;;-145.37;77.42
13486;BME280;6815;59.336;17.998;2023-03-11T09:29:54;52216.91;;;-145.37;77.02
13486;BME280;6815;59.336;17.998;2023-03-11T09:32:20;52216.91;;;-145.37;76.22
13486;BME280;6815;59.336;17.998;2023-03-11T09:34:45;52190.97;;;-145.37;75.93
13486;BME280;6815;59.336;17.998;2023-03-11T09:37:11;52216.91;;;-145.37;75.76
13486;BME280;6815;59.336;17.998;2023-03-11T09:39:36;52178.97;;;-145.37;75.77
13486;BME280;6815;59.336;17.998;2023-03-11T09:44:41;52188.97;;;-145.37;75.35
13486;BME280;6815;59.336;17.998;2023-03-11T09:52:19;52151.03;;;-145.37;74.41
13486;BME280;6815;59.336;17.998;2023-03-11T09:54:51;52175.00;;;-145.37;74.47
13486;BME280;6815;59.336;17.998;2023-03-11T09:57:23;52200.94;;;-145.37;74.80
13486;BME280;6815;59.336;17.998;2023-03-11T09:59:50;52206.94;;;-145.37;74.36
13486;BME280;6815;59.336;17.998;2023-03-11T10:02:22;52214.91;;;-145.37;74.08
13486;BME280;6815;59.336;17.998;2023-03-11T10:07:30;52228.88;;;-145.37;73.78
13486;BME280;6815;59.336;17.998;2023-03-11T10:09:58;52268.81;;;-145.37;73.97
13486;BME280;6815;59.336;17.998;2023-03-11T10:15:18;52204.94;;;-145.37;73.34
13486;BME280;6815;59.336;17.998;2023-03-11T10:20:29;52206.94;;;-145.37;73.13
13486;BME280;6815;59.336;17.998;2023-03-11T10:23:06;52210.91;;;-145.37;72.78
13486;BME280;6815;59.336;17.998;2023-03-11T10:25:51;52228.88;;;-145.37;73.01
13486;BME280;6815;59.336;17.998;2023-03-11T10:28:20;52244.84;;;-145.37;72.94
13486;BME280;6815;59.336;17.998;2023-03-11T10:30:51;52200.94;;;-145.37;72.79
13486;BME280;6815;59.336;17.998;2023-03-11T10:33:37;52236.88;;;-145.37;72.70
13486;BME280;6815;59.336;17.998;2023-03-11T10:36:11;52232.88;;;-145.37;72.34
13486;BME280;6815;59.336;17.998;2023-03-11T10:38:44;52216.91;;;-145.37;71.68
13486;BME280;6815;59.336;17.998;2023-03-11T10:43:44;52180.97;;;-145.37;71.72
13486;BME280;6815;59.336;17.998;2023-03-11T10:46:19;52232.88;;;-145.37;72.10
13486;BME280;6815;59.336;17.998;2023-03-11T10:48:47;52216.91;;;-145.37;72.54
13486;BME280;6815;59.336;17.998;2023-03-11T10:51:22;52196.94;;;-145.37;72.21
13486;BME280;6815;59.336;17.998;2023-03-11T10:53:51;52220.91;;;-145.37;72.31
13486;BME280;6815;59.336;17.998;2023-03-11T10:56:44;52178.97;;;-145.37;72.76
13486;BME280;6815;59.336;17.998;2023-03-11T11:02:20;52216.91;;;-145.37;72.25
13486;BME280;6815;59.336;17.998;2023-03-11T11:05:03;52282.78;;;-145.37;71.98
13486;BME280;6815;59.336;17.998;2023-03-11T11:07:35;52210.91;;;-145.37;72.00
13486;BME280;6815;59.336;17.998;2023-03-11T11:15:41;52204.94;;;-145.37;70.96
13486;BME280;6815;59.336;17.998;2023-03-11T11:18:23;52224.91;;;-145.37;71.11
13486;BME280;6815;59.336;17.998;2023-03-11T11:26:03;52220.91;;;-145.37;71.00
13486;BME280;6815;59.336;17.998;2023-03-11T11:28:33;52206.94;;;-145.37;71.03
13486;BME280;6815;59.336;17.998;2023-03-11T11:31:02;52200.94;;;-145.37;70.99
13486;BME280;6815;59.336;17.998;2023-03-11T11:33:38;52214.91;;;-145.37;70.79
13486;BME280;6815;59.336;17.998;2023-03-11T11:36:11;52196.94;;;-145.37;70.25
13486;BME280;6815;59.336;17.998;2023-03-11T11:38:38;52198.94;;;-145.37;70.40
13486;BME280;6815;59.336;17.998;2023-03-11T11:41:05;52192.97;;;-145.37;70.75
13486;BME280;6815;59.336;17.998;2023-03-11T11:43:53;52177.00;;;-145.37;71.07
13486;BME280;6815;59.336;17.998;2023-03-11T11:46:43;52230.88;;;-145.37;71.02
13486;BME280;6815;59.336;17.998;2023-03-11T11:49:26;52198.94;;;-145.37;70.39
13486;BME280;6815;59.336;17.998;2023-03-11T11:52:13;52226.91;;;-145.37;70.88
13486;BME280;6815;59.336;17.998;2023-03-11T11:57:36;52204.94;;;-145.37;70.32
13486;BME280;6815;59.336;17.998;2023-03-11T12:00:02;52198.94;;;-145.37;70.56
13486;BME280;6815;59.336;17.998;2023-03-11T12:02:48;52196.94;;;-145.37;70.13
13486;BME280;6815;59.336;17.998;2023-03-11T12:05:31;52216.91;;;-145.37;70.06
13486;BME280;6815;59.336;17.998;2023-03-11T12:08:53;52180.97;;;-145.37;69.67
13486;BME280;6815;59.336;17.998;2023-03-11T12:11:40;52196.94;;;-145.37;69.54
13486;BME280;6815;59.336;17.998;2023-03-11T12:16:56;52190.97;;;-145.37;69.45
13486;BME280;6815;59.336;17.998;2023-03-11T12:22:08;52224.91;;;-145.37;69.64
13486;BME280;6815;59.336;17.998;2023-03-11T12:30:23;52232.88;;;-145.37;68.68
13486;BME280;6815;59.336;17.998;2023-03-11T12:35:23;52288.78;;;-145.37;69.03
13486;BME280;6815;59.336;17.998;2023-03-11T12:38:06;52224.91;;;-145.37;69.11
13486;BME280;6815;59.336;17.998;2023-03-11T12:45:54;52248.84;;;-145.37;68.36
13486;BME280;6815;59.336;17.998;2023-03-11T12:50:55;52238.88;;;-145.37;68.64
13486;BME280;6815;59.336;17.998;2023-03-11T12:53:47;52234.88;;;-145.37;68.97
13486;BME280;6815;59.336;17.998;2023-03-11T13:12:49;52232.88;;;-145.37;67.78
13486;BME280;6815;59.336;17.998;2023-03-11T13:15:23;52218.91;;;-145.37;67.10
13486;BME280;6815;59.336;17.998;2023-03-11T13:25:41;52210.91;;;-145.37;66.99
13486;BME280;6815;59.336;17.998;2023-03-11T13:30:43;52220.91;;;-145.37;67.59
13486;BME280;6815;59.336;17.998;2023-03-11T13:33:53;52246.84;;;-145.37;67.70
13486;BME280;6815;59.336;17.998;2023-03-11T13:41:18;52192.97;;;-145.37;67.91
13486;BME280;6815;59.336;17.998;2023-03-11T13:43:48;52220.91;;;-145.37;67.83
13486;BME280;6815;59.336;17.998;2023-03-11T13:46:34;52282.78;;;-145.37;67.59
13486;BME280;6815;59.336;17.998;2023-03-11T13:49:06;52234.88;;;-145.37;68.25
13486;BME280;6815;59.336;17.998;2023-03-11T13:51:42;52208.94;;;-145.37;68.22
13486;BME280;6815;59.336;17.998;2023-03-11T13:57:04;52220.91;;;-145.37;67.01
13486;BME280;6815;59.336;17.998;2023-03-11T13:59:32;52208.94;;;-145.37;66.20
13486;BME280;6815;59.336;17.998;2023-03-11T14:02:20;52228.88;;;-145.37;64.71
13486;BME280;6815;59.336;17.998;2023-03-11T14:05:12;52210.91;;;-145.37;64.14
13486;BME280;6815;59.336;17.998;2023-03-11T14:07:39;52226.91;;;-145.37;64.15
13486;BME280;6815;59.336;17.998;2023-03-11T14:12:40;52184.97;;;-145.37;64.31
13486;BME280;6815;59.336;17.998;2023-03-11T14:15:07;52206.94;;;-145.37;61.87
13486;BME280;6815;59.336;17.998;2023-03-11T14:17:33;52206.94;;;-145.37;61.31
13486;BME280;6815;59.336;17.998;2023-03-11T14:20:31;52180.97;;;-145.37;60.13
13486;BME280;6815;59.336;17.998;2023-03-11T14:22:57;52210.91;;;-145.37;57.61
13486;BME280;6815;59.336;17.998;2023-03-11T14:25:25;52230.88;;;-145.37;56.18
13486;BME280;6815;59.336;17.998;2023-03-11T14:28:00;52242.88;;;-145.37;56.32
13486;BME280;6815;59.336;17.998;2023-03-11T14:30:30;52145.03;;;-145.37;56.14